Le Ponant — FGZZ — position and weather

sailwx.info

Track history (hours):
 
Tides and Currents Weather Stations Pressure Air Temp Water Temp Dewpoint Dewpoint Depression Visibility Wind Speed Wind Dir Waves Ship Positions

Le Ponant

Operator: Compangy des Iles du Ponant

Last reported at 2014-Jul-28 04:28 UTC. Time now 2014-Jul-30 04:57 UTC.
Position N 42°34' E 008°08'.

Length 84 m; draft 4.2 m.

Type: Passenger vessel. MMSI: 227186000.

Date/timePositionNaut miles runAvg speedWind from/ knotsBaromVisibWave heightAir tempDewpointWater temp
2014-Jul-28 04:28N 42°34' E 008°08'1010.6
2014-Jul-28 03:33N 42°40' E 007°57'1111.0
2014-Jul-28 02:34N 42°47' E 007°45'1110.9
2014-Jul-28 01:32N 42°53' E 007°32'1010.3
2014-Jul-28 00:33N 42°59' E 007°21'1010.5
2014-Jul-27 23:33N 43°05' E 007°09'1110.6
2014-Jul-27 22:33N 43°10' E 006°57'1010.4
2014-Jul-27 21:33N 43°16' E 006°45'6 5.3
2014-Jul-27 20:30N 43°17' E 006°38'0 0.0
2014-Jul-27 19:33N 43°17' E 006°38'0 0.0
2014-Jul-27 18:21N 43°17' E 006°38'0 0.0
2014-Jul-27 17:33N 43°17' E 006°38'0 0.0
2014-Jul-27 16:27N 43°17' E 006°38'0 0.0
2014-Jul-27 15:24N 43°17' E 006°38'0 0.0
2014-Jul-27 14:27N 43°17' E 006°38'0 0.0
2014-Jul-27 13:24N 43°17' E 006°38'0 0.0
2014-Jul-27 12:33N 43°17' E 006°38'0 0.0
2014-Jul-27 11:30N 43°17' E 006°38'0 0.0
2014-Jul-27 10:27N 43°17' E 006°38'0 0.0
2014-Jul-27 09:30N 43°17' E 006°38'0 0.0
2014-Jul-27 08:30N 43°17' E 006°38'3 3.0
2014-Jul-27 07:33N 43°18' E 006°41'1111.1
2014-Jul-27 06:33N 43°25' E 006°54'4 3.6
2014-Jul-27 05:34N 43°24' E 006°58'1 0.9
2014-Jul-27 04:33N 43°25' E 006°59'1 1.1
2014-Jul-27 03:33N 43°25' E 007°01'2 1.7
2014-Jul-27 02:33N 43°26' E 007°03'2 2.0
2014-Jul-27 01:33N 43°27' E 007°05'3 3.3
2014-Jul-27 00:33N 43°29' E 007°09'3 2.9
2014-Jul-26 23:33N 43°31' E 007°12'3 2.7
2014-Jul-26 22:33N 43°33' E 007°12'2 1.7
2014-Jul-26 21:33N 43°35' E 007°13'1 0.9
2014-Jul-26 20:33N 43°36' E 007°14'1 1.3
2014-Jul-26 19:33N 43°37' E 007°15'2 1.9
2014-Jul-26 18:33N 43°39' E 007°16'2 2.2
2014-Jul-26 17:33N 43°40' E 007°18'1 1.2
2014-Jul-26 16:27N 43°42' E 007°17'0 0.0
2014-Jul-26 15:21N 43°42' E 007°17'0 0.0
2014-Jul-26 14:33N 43°42' E 007°17'0 0.0
2014-Jul-26 13:33N 43°42' E 007°17'0 0.0
2014-Jul-26 11:27N 43°42' E 007°17'0 0.0
2014-Jul-26 10:33N 43°42' E 007°17'0 0.0
2014-Jul-26 09:33N 43°42' E 007°17'0 0.0
2014-Jul-26 08:33N 43°42' E 007°17'0 0.0
2014-Jul-26 07:33N 43°42' E 007°17'0 0.0
2014-Jul-26 06:33N 43°42' E 007°17'0 0.4
2014-Jul-26 05:33N 43°41' E 007°17'7 6.8
2014-Jul-26 04:30N 43°40' E 007°27'38 8.6
2014-Jul-26 00:07N 43°43' E 008°19'1810.1
2014-Jul-25 22:22N 43°44' E 008°44'8 9.7
2014-Jul-25 21:33N 43°45' E 008°54'1010.1
2014-Jul-25 20:33N 43°45' E 009°08'1010.1
2014-Jul-25 19:33N 43°47' E 009°22'9 9.3
2014-Jul-25 18:33N 43°51' E 009°34'9 9.2
2014-Jul-25 17:33N 43°58' E 009°43'8 8.5
2014-Jul-25 16:33N 44°03' E 009°52'1 0.7
2014-Jul-25 15:33N 44°03' E 009°51'0 0.0
2014-Jul-25 14:33N 44°03' E 009°51'0 0.0
2014-Jul-25 13:33N 44°03' E 009°51'0 0.0
2014-Jul-25 12:33N 44°03' E 009°51'0 0.0
2014-Jul-25 11:33N 44°03' E 009°51'0 0.0
2014-Jul-25 10:33N 44°03' E 009°51'0 0.0
2014-Jul-25 09:33N 44°03' E 009°51'0 0.0
2014-Jul-25 08:33N 44°03' E 009°51'0 0.0
2014-Jul-25 07:33N 44°03' E 009°51'0 0.0
2014-Jul-25 06:33N 44°03' E 009°51'0 0.0
2014-Jul-25 05:33N 44°03' E 009°51'3 2.4
2014-Jul-25 04:31N 44°04' E 009°54'0 0.0
2014-Jul-25 03:31N 44°04' E 009°54'0 0.0
2014-Jul-25 02:31N 44°04' E 009°54'0 0.0
2014-Jul-25 01:31N 44°04' E 009°54'0 0.0
2014-Jul-25 00:31N 44°04' E 009°54'0 0.0
2014-Jul-24 23:31N 44°04' E 009°54'0 0.0
2014-Jul-24 22:31N 44°04' E 009°54'0 0.0
2014-Jul-24 21:31N 44°04' E 009°54'0 0.0
2014-Jul-24 20:31N 44°04' E 009°54'0 0.0
2014-Jul-24 19:31N 44°04' E 009°54'0 0.0
2014-Jul-24 18:31N 44°04' E 009°54'0 0.0
2014-Jul-24 17:31N 44°04' E 009°54'0 0.0
2014-Jul-24 16:31N 44°04' E 009°54'0 0.0
2014-Jul-24 15:31N 44°04' E 009°54'0 0.0
2014-Jul-24 14:28N 44°04' E 009°54'0 0.0
2014-Jul-24 13:28N 44°04' E 009°54'0 0.0
2014-Jul-24 12:31N 44°04' E 009°54'0 0.0
2014-Jul-24 11:31N 44°04' E 009°54'0 0.0
2014-Jul-24 10:31N 44°04' E 009°54'0 0.0
2014-Jul-24 09:31N 44°04' E 009°54'0 0.0
2014-Jul-24 08:31N 44°04' E 009°54'0 0.0
2014-Jul-24 07:31N 44°04' E 009°54'0 0.0
2014-Jul-24 06:31N 44°04' E 009°54'1 0.8
2014-Jul-24 05:34N 44°04' E 009°55'6 5.8
2014-Jul-24 04:33N 43°58' E 009°55'9 8.7
2014-Jul-24 03:34N 43°50' E 009°51'9 8.9
2014-Jul-24 02:34N 43°41' E 009°48'9 9.0
2014-Jul-24 01:34N 43°33' E 009°43'9 8.7
2014-Jul-24 00:33N 43°24' E 009°43'10 9.9
2014-Jul-23 23:33N 43°16' E 009°52'10 9.4
2014-Jul-23 22:30N 43°09' E 010°00'9 9.1
2014-Jul-23 21:33N 43°02' E 010°07'10 9.3
2014-Jul-23 20:27N 42°54' E 010°16'6 5.8
2014-Jul-23 19:21N 42°48' E 010°21'1 0.1
2014-Jul-23 06:13N 42°49' E 010°20'2 2.5
2014-Jul-23 05:24N 42°51' E 010°19'11 9.8
2014-Jul-23 04:15N 42°52' E 010°04'5 7.2
2014-Jul-23 03:33N 42°48' E 009°60'9 9.2
2014-Jul-23 02:33N 42°39' E 009°56'  
2014-Jul-20 03:30N 42°34' E 008°21'8 7.0
2014-Jul-20 02:18N 42°41' E 008°14'5 7.3
2014-Jul-20 01:33N 42°45' E 008°10'8 7.9
2014-Jul-20 00:33N 42°52' E 008°05'8 8.3
2014-Jul-19 23:33N 42°59' E 007°59'8 8.2
2014-Jul-19 22:33N 43°06' E 007°52'8 8.4
2014-Jul-19 21:33N 43°13' E 007°46'8 8.3
2014-Jul-19 20:33N 43°19' E 007°39'9 8.6
2014-Jul-19 19:33N 43°26' E 007°32'9 8.7
2014-Jul-19 18:33N 43°33' E 007°25'8 8.4
2014-Jul-19 17:33N 43°40' E 007°18'1 0.0
2014-Jul-19 05:33N 43°41' E 007°18'7 7.5
2014-Jul-19 04:33N 43°35' E 007°24'1110.6
2014-Jul-19 03:34N 43°29' E 007°36'1010.4
2014-Jul-19 02:33N 43°22' E 007°47'1010.3
2014-Jul-19 01:34N 43°16' E 007°58'10 9.9
2014-Jul-19 00:33N 43°09' E 008°08'10 9.7
2014-Jul-18 23:34N 43°03' E 008°19'10 9.9
2014-Jul-18 22:32N 42°57' E 008°29'1010.1
2014-Jul-18 21:32N 42°50' E 008°40'1010.0
2014-Jul-18 20:33N 42°44' E 008°50'8 5.8
2014-Jul-18 19:14N 42°38' E 008°57'0 0.1
2014-Jul-18 18:32N 42°38' E 008°57'0 0.0
2014-Jul-18 17:23N 42°38' E 008°57'0 0.0
2014-Jul-18 16:11N 42°38' E 008°57'0 0.0
2014-Jul-18 14:23N 42°38' E 008°57'0 0.0
2014-Jul-18 10:29N 42°38' E 008°57'0 0.0
2014-Jul-18 09:32N 42°38' E 008°57'0 0.0
2014-Jul-18 08:29N 42°38' E 008°57'0 0.0
2014-Jul-18 07:29N 42°38' E 008°57'0 0.0
2014-Jul-18 06:32N 42°38' E 008°57'4 3.4
2014-Jul-18 05:13N 42°39' E 008°51'  
Track history (hours):
 
Tides and Currents Weather Stations Pressure Air Temp Water Temp Dewpoint Dewpoint Depression Visibility Wind Speed Wind Dir Waves Ship Positions

Le Ponant

Operator: Compangy des Iles du Ponant

Last reported at 2014-Jul-28 04:28 UTC. Time now 2014-Jul-30 04:57 UTC.
Position N 42°34' E 008°08'.

Length 84 m; draft 4.2 m.

Type: Passenger vessel. MMSI: 227186000.

Date/timePositionNaut miles runAvg speedWind from/ knotsBaromVisibWave heightAir tempDewpointWater temp
2014-Jul-28 04:28N 42°34' E 008°08'1010.6
2014-Jul-28 03:33N 42°40' E 007°57'1111.0
2014-Jul-28 02:34N 42°47' E 007°45'1110.9
2014-Jul-28 01:32N 42°53' E 007°32'1010.3
2014-Jul-28 00:33N 42°59' E 007°21'1010.5
2014-Jul-27 23:33N 43°05' E 007°09'1110.6
2014-Jul-27 22:33N 43°10' E 006°57'1010.4
2014-Jul-27 21:33N 43°16' E 006°45'6 5.3
2014-Jul-27 20:30N 43°17' E 006°38'0 0.0
2014-Jul-27 19:33N 43°17' E 006°38'0 0.0
2014-Jul-27 18:21N 43°17' E 006°38'0 0.0
2014-Jul-27 17:33N 43°17' E 006°38'0 0.0
2014-Jul-27 16:27N 43°17' E 006°38'0 0.0
2014-Jul-27 15:24N 43°17' E 006°38'0 0.0
2014-Jul-27 14:27N 43°17' E 006°38'0 0.0
2014-Jul-27 13:24N 43°17' E 006°38'0 0.0
2014-Jul-27 12:33N 43°17' E 006°38'0 0.0
2014-Jul-27 11:30N 43°17' E 006°38'0 0.0
2014-Jul-27 10:27N 43°17' E 006°38'0 0.0
2014-Jul-27 09:30N 43°17' E 006°38'0 0.0
2014-Jul-27 08:30N 43°17' E 006°38'3 3.0
2014-Jul-27 07:33N 43°18' E 006°41'1111.1
2014-Jul-27 06:33N 43°25' E 006°54'4 3.6
2014-Jul-27 05:34N 43°24' E 006°58'1 0.9
2014-Jul-27 04:33N 43°25' E 006°59'1 1.1
2014-Jul-27 03:33N 43°25' E 007°01'2 1.7
2014-Jul-27 02:33N 43°26' E 007°03'2 2.0
2014-Jul-27 01:33N 43°27' E 007°05'3 3.3
2014-Jul-27 00:33N 43°29' E 007°09'3 2.9
2014-Jul-26 23:33N 43°31' E 007°12'3 2.7
2014-Jul-26 22:33N 43°33' E 007°12'2 1.7
2014-Jul-26 21:33N 43°35' E 007°13'1 0.9
2014-Jul-26 20:33N 43°36' E 007°14'1 1.3
2014-Jul-26 19:33N 43°37' E 007°15'2 1.9
2014-Jul-26 18:33N 43°39' E 007°16'2 2.2
2014-Jul-26 17:33N 43°40' E 007°18'1 1.2
2014-Jul-26 16:27N 43°42' E 007°17'0 0.0
2014-Jul-26 15:21N 43°42' E 007°17'0 0.0
2014-Jul-26 14:33N 43°42' E 007°17'0 0.0
2014-Jul-26 13:33N 43°42' E 007°17'0 0.0
2014-Jul-26 11:27N 43°42' E 007°17'0 0.0
2014-Jul-26 10:33N 43°42' E 007°17'0 0.0
2014-Jul-26 09:33N 43°42' E 007°17'0 0.0
2014-Jul-26 08:33N 43°42' E 007°17'0 0.0
2014-Jul-26 07:33N 43°42' E 007°17'0 0.0
2014-Jul-26 06:33N 43°42' E 007°17'0 0.4
2014-Jul-26 05:33N 43°41' E 007°17'7 6.8
2014-Jul-26 04:30N 43°40' E 007°27'38 8.6
2014-Jul-26 00:07N 43°43' E 008°19'1810.1
2014-Jul-25 22:22N 43°44' E 008°44'8 9.7
2014-Jul-25 21:33N 43°45' E 008°54'1010.1
2014-Jul-25 20:33N 43°45' E 009°08'1010.1
2014-Jul-25 19:33N 43°47' E 009°22'9 9.3
2014-Jul-25 18:33N 43°51' E 009°34'9 9.2
2014-Jul-25 17:33N 43°58' E 009°43'8 8.5
2014-Jul-25 16:33N 44°03' E 009°52'1 0.7
2014-Jul-25 15:33N 44°03' E 009°51'0 0.0
2014-Jul-25 14:33N 44°03' E 009°51'0 0.0
2014-Jul-25 13:33N 44°03' E 009°51'0 0.0
2014-Jul-25 12:33N 44°03' E 009°51'0 0.0
2014-Jul-25 11:33N 44°03' E 009°51'0 0.0
2014-Jul-25 10:33N 44°03' E 009°51'0 0.0
2014-Jul-25 09:33N 44°03' E 009°51'0 0.0
2014-Jul-25 08:33N 44°03' E 009°51'0 0.0
2014-Jul-25 07:33N 44°03' E 009°51'0 0.0
2014-Jul-25 06:33N 44°03' E 009°51'0 0.0
2014-Jul-25 05:33N 44°03' E 009°51'3 2.4
2014-Jul-25 04:31N 44°04' E 009°54'0 0.0
2014-Jul-25 03:31N 44°04' E 009°54'0 0.0
2014-Jul-25 02:31N 44°04' E 009°54'0 0.0
2014-Jul-25 01:31N 44°04' E 009°54'0 0.0
2014-Jul-25 00:31N 44°04' E 009°54'0 0.0
2014-Jul-24 23:31N 44°04' E 009°54'0 0.0
2014-Jul-24 22:31N 44°04' E 009°54'0 0.0
2014-Jul-24 21:31N 44°04' E 009°54'0 0.0
2014-Jul-24 20:31N 44°04' E 009°54'0 0.0
2014-Jul-24 19:31N 44°04' E 009°54'0 0.0
2014-Jul-24 18:31N 44°04' E 009°54'0 0.0
2014-Jul-24 17:31N 44°04' E 009°54'0 0.0
2014-Jul-24 16:31N 44°04' E 009°54'0 0.0
2014-Jul-24 15:31N 44°04' E 009°54'0 0.0
2014-Jul-24 14:28N 44°04' E 009°54'0 0.0
2014-Jul-24 13:28N 44°04' E 009°54'0 0.0
2014-Jul-24 12:31N 44°04' E 009°54'0 0.0
2014-Jul-24 11:31N 44°04' E 009°54'0 0.0
2014-Jul-24 10:31N 44°04' E 009°54'0 0.0
2014-Jul-24 09:31N 44°04' E 009°54'0 0.0
2014-Jul-24 08:31N 44°04' E 009°54'0 0.0
2014-Jul-24 07:31N 44°04' E 009°54'0 0.0
2014-Jul-24 06:31N 44°04' E 009°54'1 0.8
2014-Jul-24 05:34N 44°04' E 009°55'6 5.8
2014-Jul-24 04:33N 43°58' E 009°55'9 8.7
2014-Jul-24 03:34N 43°50' E 009°51'9 8.9
2014-Jul-24 02:34N 43°41' E 009°48'9 9.0
2014-Jul-24 01:34N 43°33' E 009°43'9 8.7
2014-Jul-24 00:33N 43°24' E 009°43'10 9.9
2014-Jul-23 23:33N 43°16' E 009°52'10 9.4
2014-Jul-23 22:30N 43°09' E 010°00'9 9.1
2014-Jul-23 21:33N 43°02' E 010°07'10 9.3
2014-Jul-23 20:27N 42°54' E 010°16'6 5.8
2014-Jul-23 19:21N 42°48' E 010°21'1 0.1
2014-Jul-23 06:13N 42°49' E 010°20'2 2.5
2014-Jul-23 05:24N 42°51' E 010°19'11 9.8
2014-Jul-23 04:15N 42°52' E 010°04'5 7.2
2014-Jul-23 03:33N 42°48' E 009°60'9 9.2
2014-Jul-23 02:33N 42°39' E 009°56'  
2014-Jul-20 03:30N 42°34' E 008°21'8 7.0
2014-Jul-20 02:18N 42°41' E 008°14'5 7.3
2014-Jul-20 01:33N 42°45' E 008°10'8 7.9
2014-Jul-20 00:33N 42°52' E 008°05'8 8.3
2014-Jul-19 23:33N 42°59' E 007°59'8 8.2
2014-Jul-19 22:33N 43°06' E 007°52'8 8.4
2014-Jul-19 21:33N 43°13' E 007°46'8 8.3
2014-Jul-19 20:33N 43°19' E 007°39'9 8.6
2014-Jul-19 19:33N 43°26' E 007°32'9 8.7
2014-Jul-19 18:33N 43°33' E 007°25'8 8.4
2014-Jul-19 17:33N 43°40' E 007°18'1 0.0
2014-Jul-19 05:33N 43°41' E 007°18'7 7.5
2014-Jul-19 04:33N 43°35' E 007°24'1110.6
2014-Jul-19 03:34N 43°29' E 007°36'1010.4
2014-Jul-19 02:33N 43°22' E 007°47'1010.3
2014-Jul-19 01:34N 43°16' E 007°58'10 9.9
2014-Jul-19 00:33N 43°09' E 008°08'10 9.7
2014-Jul-18 23:34N 43°03' E 008°19'10 9.9
2014-Jul-18 22:32N 42°57' E 008°29'1010.1
2014-Jul-18 21:32N 42°50' E 008°40'1010.0
2014-Jul-18 20:33N 42°44' E 008°50'8 5.8
2014-Jul-18 19:14N 42°38' E 008°57'0 0.1
2014-Jul-18 18:32N 42°38' E 008°57'0 0.0
2014-Jul-18 17:23N 42°38' E 008°57'0 0.0
2014-Jul-18 16:11N 42°38' E 008°57'0 0.0
2014-Jul-18 14:23N 42°38' E 008°57'0 0.0
2014-Jul-18 10:29N 42°38' E 008°57'0 0.0
2014-Jul-18 09:32N 42°38' E 008°57'0 0.0
2014-Jul-18 08:29N 42°38' E 008°57'0 0.0
2014-Jul-18 07:29N 42°38' E 008°57'0 0.0
2014-Jul-18 06:32N 42°38' E 008°57'4 3.4
2014-Jul-18 05:13N 42°39' E 008°51'  

Dump ship's entire track history